createdAt,value
2019-01-19T00:03:12.081Z,5.57
2019-01-19T00:09:07.091Z,10.38
2019-01-19T00:15:02.093Z,6.71
2019-01-19T00:20:57.093Z,4.9
2019-01-19T00:26:52.107Z,5.37
2019-01-19T00:32:47.095Z,5.55
2019-01-19T00:38:42.095Z,6.9
2019-01-19T00:44:37.126Z,6.19
2019-01-19T00:50:32.120Z,5.14
2019-01-19T00:56:27.116Z,4.23
2019-01-19T01:02:22.118Z,5.18
2019-01-19T01:08:17.165Z,4.52
2019-01-19T01:14:12.158Z,4.68
2019-01-19T01:20:07.132Z,4.17
2019-01-19T01:26:02.129Z,4.44
2019-01-19T01:31:57.116Z,3.6
2019-01-19T01:37:52.134Z,3.08
2019-01-19T01:43:47.172Z,3.29
2019-01-19T01:49:42.144Z,2.98
2019-01-19T01:55:37.174Z,2.64
2019-01-19T02:01:32.218Z,2.09
2019-01-19T02:07:27.177Z,1.3
2019-01-19T02:13:22.134Z,1.56
2019-01-19T02:19:17.167Z,1.04
2019-01-19T02:25:12.162Z,1.79
2019-01-19T02:31:07.201Z,1.6
2019-01-19T02:37:02.172Z,1.26
2019-01-19T02:42:57.171Z,1.64
2019-01-19T02:48:52.169Z,2.04
2019-01-19T02:54:47.162Z,0.92
2019-01-19T03:00:42.172Z,0.81
2019-01-19T03:06:37.172Z,0.63
2019-01-19T03:12:32.168Z,0.69
2019-01-19T03:18:27.196Z,1.3
2019-01-19T03:24:22.214Z,0.54
2019-01-19T03:30:17.182Z,0.38
2019-01-19T03:36:12.174Z,0.88
2019-01-19T03:42:07.252Z,0.32
2019-01-19T03:48:02.190Z,0.8
2019-01-19T03:53:57.234Z,0.48
2019-01-19T03:59:52.218Z,0.85
2019-01-19T04:05:47.250Z,1.16
2019-01-19T04:11:42.205Z,0.93
2019-01-19T04:17:37.219Z,0.42
2019-01-19T04:23:32.219Z,0.58
2019-01-19T04:29:27.224Z,0.63
2019-01-19T04:35:22.230Z,0.56
2019-01-19T04:41:17.235Z,0.64
2019-01-19T04:47:12.236Z,0.94
2019-01-19T04:53:07.260Z,0.47
2019-01-19T04:59:02.251Z,0.65
2019-01-19T05:04:57.254Z,0.49
2019-01-19T05:10:52.236Z,1.02
2019-01-19T05:16:47.281Z,1.14
2019-01-19T05:22:42.238Z,1.23
2019-01-19T05:28:37.319Z,0.53
2019-01-19T05:34:32.288Z,0.49
2019-01-19T05:40:27.281Z,1.34
2019-01-19T05:46:22.269Z,1.17
2019-01-19T05:52:17.257Z,0.61
2019-01-19T05:58:12.290Z,0.6
2019-01-19T06:04:07.277Z,1.82
2019-01-19T06:10:02.277Z,0.51
2019-01-19T06:15:57.294Z,0.78
2019-01-19T06:21:52.277Z,0.48
2019-01-19T06:27:47.290Z,0.85
2019-01-19T06:33:42.276Z,0.95
2019-01-19T06:39:37.291Z,0.56
2019-01-19T06:45:32.277Z,0.61
2019-01-19T06:51:27.292Z,0.89
2019-01-19T06:57:22.300Z,1.05
2019-01-19T07:03:17.301Z,0.7
2019-01-19T07:09:12.327Z,0.71
2019-01-19T07:15:07.313Z,0.37
2019-01-19T07:21:02.336Z,0.5
2019-01-19T07:26:57.314Z,0.49
2019-01-19T07:32:52.311Z,0.79
2019-01-19T07:38:47.353Z,0.62
2019-01-19T07:44:42.320Z,0.63
2019-01-19T07:50:37.364Z,0.49
2019-01-19T07:56:32.330Z,0.44
2019-01-19T08:02:27.320Z,0.68
2019-01-19T08:08:22.327Z,1.67
2019-01-19T08:14:17.386Z,1.58
2019-01-19T08:20:12.328Z,1.28
2019-01-19T08:26:07.344Z,1.16
2019-01-19T08:32:02.352Z,1.58
2019-01-19T08:37:57.334Z,3.08
2019-01-19T08:43:52.337Z,2.65
2019-01-19T08:49:47.352Z,0.56
2019-01-19T08:55:42.391Z,2.05
2019-01-19T09:01:37.413Z,0.81
2019-01-19T09:07:33.757Z,0.79
2019-01-19T09:13:27.372Z,1.04
2019-01-19T09:19:22.361Z,1.32
2019-01-19T09:25:17.367Z,0.86
2019-01-19T09:31:12.390Z,0.6
2019-01-19T09:37:07.383Z,0.72
2019-01-19T09:43:02.377Z,0.71
2019-01-19T09:48:57.379Z,2.41
2019-01-19T09:54:52.395Z,0.96
2019-01-19T10:00:47.400Z,1.01
2019-01-19T10:06:42.380Z,0.91
2019-01-19T10:12:37.422Z,0.78
2019-01-19T10:18:32.409Z,1.59
2019-01-19T10:24:27.395Z,1.64
2019-01-19T10:30:22.472Z,1.67
2019-01-19T10:36:17.417Z,1.51
2019-01-19T10:42:12.396Z,0.99
2019-01-19T10:48:07.468Z,1.21
2019-01-19T10:54:02.461Z,1.39
2019-01-19T10:59:57.410Z,1.14
2019-01-19T11:05:52.434Z,1.39
2019-01-19T11:11:47.442Z,1.03
2019-01-19T11:17:42.421Z,1.56
2019-01-19T11:23:39.799Z,1.5
2019-01-19T11:29:32.463Z,1.86
2019-01-19T11:35:27.435Z,2.2
2019-01-19T11:41:22.443Z,2.07
2019-01-19T11:47:17.450Z,2.69
2019-01-19T11:53:12.522Z,3.84
2019-01-19T11:59:07.459Z,1.59
2019-01-19T12:05:02.473Z,2.2
2019-01-19T12:10:57.458Z,1.18
2019-01-19T12:16:52.494Z,1.53
2019-01-19T12:22:47.464Z,2.61
2019-01-19T12:28:42.472Z,2.41
2019-01-19T12:34:37.475Z,2.25
2019-01-19T12:40:32.529Z,2.12
2019-01-19T12:46:27.479Z,2.45
2019-01-19T12:52:22.471Z,3.36
2019-01-19T12:58:17.588Z,4.01
2019-01-19T13:04:12.515Z,1.98
2019-01-19T13:10:07.493Z,2.71
2019-01-19T13:16:02.472Z,1.57
2019-01-19T13:21:57.529Z,2.25
2019-01-19T13:27:52.491Z,3.02
2019-01-19T13:33:47.509Z,2.85
2019-01-19T13:39:42.583Z,2.13
2019-01-19T13:45:37.516Z,1.76
2019-01-19T13:51:32.510Z,1.92
2019-01-19T13:57:27.513Z,3.23
2019-01-19T14:03:22.513Z,1.82
2019-01-19T14:09:17.506Z,2.11
2019-01-19T14:15:12.526Z,1.8
2019-01-19T14:21:07.563Z,1.49
2019-01-19T14:27:02.529Z,1.76
2019-01-19T14:32:57.534Z,1.7
2019-01-19T14:38:56.491Z,3.46
2019-01-19T14:44:47.532Z,6.26
2019-01-19T14:50:42.542Z,2.53
2019-01-19T14:56:37.546Z,1.46
2019-01-19T15:02:32.569Z,2.22
2019-01-19T15:08:27.582Z,2.59
2019-01-19T15:14:22.555Z,5.13
2019-01-19T15:20:17.550Z,4.65
2019-01-19T15:26:12.544Z,2.98
2019-01-19T15:32:07.554Z,6.01
2019-01-19T15:38:02.557Z,2.1
2019-01-19T15:43:57.575Z,2.53
2019-01-19T15:49:52.561Z,2.46
2019-01-19T15:55:47.572Z,3.34
2019-01-19T16:01:42.625Z,5.39
2019-01-19T16:07:37.591Z,2.49
2019-01-19T16:13:32.598Z,3.46
2019-01-19T16:19:27.572Z,2.22
2019-01-19T16:25:22.585Z,5.97
2019-01-19T16:31:17.611Z,4.64
2019-01-19T16:37:12.592Z,3.87
2019-01-19T16:43:07.607Z,1.79
2019-01-19T16:49:02.596Z,2.45
2019-01-19T16:54:57.599Z,1.49
2019-01-19T17:00:52.602Z,2.2
2019-01-19T17:06:47.689Z,2.75
2019-01-19T17:12:42.613Z,3.36
2019-01-19T17:18:37.647Z,3.03
2019-01-19T17:24:32.618Z,6.31
2019-01-19T17:30:27.683Z,15.03
2019-01-19T17:36:22.617Z,8.9
2019-01-19T17:42:17.636Z,18.72
2019-01-19T17:48:12.640Z,4.12
2019-01-19T17:54:07.698Z,15.43
2019-01-19T18:00:02.646Z,16.14
2019-01-19T18:05:57.676Z,15.55
2019-01-19T18:11:52.641Z,4.33
2019-01-19T18:17:47.658Z,12.77
2019-01-19T18:23:42.730Z,13.11
2019-01-19T18:29:37.641Z,15.75
2019-01-19T18:35:32.657Z,16.61
2019-01-19T18:41:27.658Z,26.74
2019-01-19T18:47:22.668Z,12.98
2019-01-19T18:53:17.656Z,4.98
2019-01-19T18:59:12.704Z,2.43
2019-01-19T19:05:07.700Z,2.83
2019-01-19T19:11:02.677Z,4.59
2019-01-19T19:16:57.686Z,7.34
2019-01-19T19:22:52.687Z,9.68
2019-01-19T19:28:47.739Z,24.69
2019-01-19T19:34:42.701Z,8.39
2019-01-19T19:40:37.747Z,13.52
2019-01-19T19:46:32.720Z,16.75
2019-01-19T19:52:27.935Z,19.27
2019-01-19T19:58:22.732Z,7.7
2019-01-19T20:04:17.696Z,8.32
2019-01-19T20:10:16.926Z,5.69
2019-01-19T20:16:07.727Z,7.59
2019-01-19T20:22:02.718Z,9.84
2019-01-19T20:27:57.719Z,12.84
2019-01-19T20:33:52.708Z,5.07
2019-01-19T20:39:47.777Z,8.7
2019-01-19T20:45:42.724Z,5.67
2019-01-19T20:51:37.721Z,7.38
2019-01-19T20:57:32.722Z,9.17
2019-01-19T21:03:27.732Z,6.7
2019-01-19T21:09:22.739Z,7.98
2019-01-19T21:15:17.736Z,11.1
2019-01-19T21:21:12.750Z,18.23
2019-01-19T21:27:07.773Z,10.36
2019-01-19T21:33:02.750Z,10.34
2019-01-19T21:38:57.745Z,10.91
2019-01-19T21:44:52.765Z,11.51
2019-01-19T21:50:47.752Z,10.93
2019-01-19T21:56:42.764Z,13.72
2019-01-19T22:02:37.772Z,19.37
2019-01-19T22:08:32.782Z,12.97
2019-01-19T22:14:27.778Z,19.21
2019-01-19T22:20:22.783Z,15.42
2019-01-19T22:26:17.775Z,13.47
2019-01-19T22:32:12.789Z,19.24
2019-01-19T22:38:07.799Z,22.8
2019-01-19T22:44:02.907Z,16.67
2019-01-19T22:49:57.819Z,14.76
2019-01-19T22:55:52.837Z,25.54
2019-01-19T23:01:47.870Z,19.52
2019-01-19T23:07:42.806Z,9.29
2019-01-19T23:13:37.808Z,10.39
2019-01-19T23:19:32.810Z,13.05
2019-01-19T23:25:27.860Z,10.57
2019-01-19T23:31:22.855Z,15.17
2019-01-19T23:37:17.805Z,13.14
2019-01-19T23:43:12.812Z,12.44
2019-01-19T23:49:07.831Z,12.06
2019-01-19T23:55:02.808Z,14.13
